createdAt,value
2018-07-14T00:00:14.814Z,6.80
2018-07-14T00:02:43.346Z,6.07
2018-07-14T00:05:11.798Z,7.07
2018-07-14T00:07:40.250Z,7.30
2018-07-14T00:10:08.771Z,5.60
2018-07-14T00:12:37.133Z,7.20
2018-07-14T00:15:06.066Z,6.83
2018-07-14T00:17:34.530Z,6.23
2018-07-14T00:20:03.022Z,6.13
2018-07-14T00:22:31.738Z,7.10
2018-07-14T00:25:00.171Z,7.57
2018-07-14T00:27:28.639Z,6.60
2018-07-14T00:29:57.351Z,6.37
2018-07-14T00:32:25.869Z,7.33
2018-07-14T00:34:54.277Z,6.63
2018-07-14T00:37:22.696Z,7.20
2018-07-14T00:39:51.198Z,7.03
2018-07-14T00:42:19.649Z,6.73
2018-07-14T00:44:48.084Z,8.00
2018-07-14T00:47:16.558Z,6.90
2018-07-14T00:49:44.974Z,7.13
2018-07-14T00:52:13.403Z,6.53
2018-07-14T00:54:41.851Z,6.93
2018-07-14T00:57:10.261Z,6.53
2018-07-14T00:59:38.666Z,6.80
2018-07-14T01:02:07.277Z,7.20
2018-07-14T01:04:35.686Z,6.77
2018-07-14T01:07:04.154Z,6.73
2018-07-14T01:09:32.562Z,6.77
2018-07-14T01:12:00.995Z,7.00
2018-07-14T01:14:29.409Z,6.93
2018-07-14T01:16:57.845Z,7.10
2018-07-14T01:19:26.262Z,7.43
2018-07-14T01:21:54.680Z,7.30
2018-07-14T01:24:23.098Z,6.90
2018-07-14T01:26:51.505Z,8.00
2018-07-14T01:29:19.938Z,7.00
2018-07-14T01:31:48.361Z,7.60
2018-07-14T01:34:16.765Z,8.07
2018-07-14T01:36:45.175Z,7.10
2018-07-14T01:39:13.586Z,7.47
2018-07-14T01:41:42.019Z,7.67
2018-07-14T01:44:10.443Z,7.30
2018-07-14T01:46:38.849Z,8.27
2018-07-14T01:49:07.289Z,6.43
2018-07-14T01:51:35.782Z,7.37
2018-07-14T01:54:04.267Z,7.03
2018-07-14T01:56:32.683Z,6.27
2018-07-14T01:59:01.106Z,8.03
2018-07-14T02:01:29.537Z,7.03
2018-07-14T02:03:57.950Z,7.47
2018-07-14T02:06:26.363Z,6.53
2018-07-14T02:08:54.778Z,7.20
2018-07-14T02:11:23.243Z,7.07
2018-07-14T02:13:51.695Z,7.97
2018-07-14T02:16:20.133Z,7.40
2018-07-14T02:18:48.541Z,6.70
2018-07-14T02:21:16.958Z,7.73
2018-07-14T02:23:45.383Z,6.67
2018-07-14T02:26:13.789Z,7.57
2018-07-14T02:28:42.230Z,7.60
2018-07-14T02:31:10.687Z,6.80
2018-07-14T02:33:39.122Z,7.00
2018-07-14T02:36:07.544Z,7.40
2018-07-14T02:38:35.957Z,7.60
2018-07-14T02:41:04.366Z,8.00
2018-07-14T02:43:32.842Z,8.00
2018-07-14T02:46:01.278Z,7.90
2018-07-14T02:48:29.767Z,7.47
2018-07-14T02:50:58.179Z,7.10
2018-07-14T02:53:26.586Z,7.80
2018-07-14T02:55:55.017Z,7.10
2018-07-14T02:58:23.423Z,7.90
2018-07-14T03:00:51.869Z,6.70
2018-07-14T03:03:20.281Z,7.40
2018-07-14T03:05:48.682Z,6.97
2018-07-14T03:08:17.126Z,6.67
2018-07-14T03:10:45.538Z,7.33
2018-07-14T03:13:13.963Z,7.13
2018-07-14T03:15:42.422Z,7.00
2018-07-14T03:18:10.842Z,7.40
2018-07-14T03:20:39.286Z,6.70
2018-07-14T03:23:07.859Z,7.10
2018-07-14T03:25:36.360Z,7.33
2018-07-14T03:28:04.889Z,8.13
2018-07-14T03:30:33.303Z,8.03
2018-07-14T03:33:01.726Z,7.73
2018-07-14T03:35:30.394Z,7.63
2018-07-14T03:37:58.806Z,6.67
2018-07-14T03:40:27.241Z,6.70
2018-07-14T03:42:55.666Z,7.57
2018-07-14T03:45:24.083Z,7.70
2018-07-14T03:47:52.509Z,7.00
2018-07-14T03:50:20.934Z,7.03
2018-07-14T03:52:49.350Z,7.47
2018-07-14T03:55:17.796Z,8.20
2018-07-14T03:57:46.225Z,7.40
2018-07-14T04:00:14.656Z,7.00
2018-07-14T04:02:43.089Z,7.07
2018-07-14T04:05:11.497Z,6.83
2018-07-14T04:07:39.926Z,7.53
2018-07-14T04:10:08.570Z,7.10
2018-07-14T04:12:37.015Z,8.10
2018-07-14T04:15:05.455Z,7.30
2018-07-14T04:17:33.878Z,7.40
2018-07-14T04:20:02.455Z,7.77
2018-07-14T04:22:30.878Z,7.50
2018-07-14T04:24:59.310Z,8.43
2018-07-14T04:27:27.714Z,7.10
2018-07-14T04:29:56.114Z,7.50
2018-07-14T04:32:24.517Z,7.07
2018-07-14T04:34:52.966Z,7.30
2018-07-14T04:37:21.364Z,7.30
2018-07-14T04:39:49.777Z,6.93
2018-07-14T04:42:18.199Z,7.70
2018-07-14T04:44:46.717Z,8.60
2018-07-14T04:47:15.131Z,7.10
2018-07-14T04:49:43.539Z,8.87
2018-07-14T04:52:11.937Z,7.50
2018-07-14T04:54:40.379Z,7.27
2018-07-14T04:57:08.791Z,7.20
2018-07-14T04:59:37.214Z,7.43
2018-07-14T05:02:05.810Z,8.97
2018-07-14T05:04:34.230Z,7.63
2018-07-14T05:07:02.647Z,7.30
2018-07-14T05:09:31.069Z,7.67
2018-07-14T05:11:59.514Z,7.00
2018-07-14T05:14:27.931Z,7.60
2018-07-14T05:16:56.322Z,7.77
2018-07-14T05:19:24.729Z,6.40
2018-07-14T05:21:53.126Z,6.73
2018-07-14T05:24:21.546Z,6.90
2018-07-14T05:26:50.078Z,7.37
2018-07-14T05:29:18.481Z,7.43
2018-07-14T05:31:46.889Z,6.67
2018-07-14T05:34:15.313Z,7.87
2018-07-14T05:36:43.433Z,6.30
2018-07-14T05:39:11.863Z,6.40
2018-07-14T05:41:40.275Z,6.13
2018-07-14T05:44:11.266Z,6.23
2018-07-14T05:46:39.693Z,6.60
2018-07-14T05:49:09.187Z,6.33
2018-07-14T05:51:37.733Z,6.60
2018-07-14T05:54:08.491Z,6.60
2018-07-14T05:56:36.946Z,6.43
2018-07-14T05:59:05.389Z,9.07
2018-07-14T06:01:33.802Z,7.10
2018-07-14T06:04:02.278Z,7.77
2018-07-14T06:06:30.681Z,5.97
2018-07-14T06:08:59.086Z,6.50
2018-07-14T06:11:27.491Z,5.60
2018-07-14T06:13:55.893Z,6.10
2018-07-14T06:16:24.442Z,5.70
2018-07-14T06:18:52.852Z,5.87
2018-07-14T06:21:21.271Z,6.00
2018-07-14T06:23:49.682Z,4.77
2018-07-14T06:26:18.112Z,4.77
2018-07-14T06:28:46.533Z,4.77
2018-07-14T06:31:14.998Z,5.20
2018-07-14T06:33:43.397Z,4.60
2018-07-14T06:36:11.817Z,5.53
2018-07-14T06:38:40.295Z,4.40
2018-07-14T06:41:08.684Z,5.07
2018-07-14T06:43:37.110Z,4.27
2018-07-14T06:46:05.687Z,4.30
2018-07-14T06:48:34.102Z,4.10
2018-07-14T06:51:02.558Z,4.40
2018-07-14T06:53:30.961Z,4.77
2018-07-14T06:55:59.388Z,4.17
2018-07-14T06:58:27.809Z,4.50
2018-07-14T07:00:56.246Z,4.30
2018-07-14T07:03:24.753Z,4.37
2018-07-14T07:05:53.134Z,3.70
2018-07-14T07:08:21.552Z,4.70
2018-07-14T07:10:49.971Z,4.43
2018-07-14T07:13:18.373Z,4.17
2018-07-14T07:15:46.778Z,4.60
2018-07-14T07:18:15.201Z,4.97
2018-07-14T07:20:43.630Z,4.80
2018-07-14T07:23:12.035Z,4.10
2018-07-14T07:25:40.458Z,4.37
2018-07-14T07:28:08.873Z,3.97
2018-07-14T07:30:37.318Z,3.43
2018-07-14T07:33:05.876Z,4.27
2018-07-14T07:35:34.317Z,3.60
2018-07-14T07:38:02.740Z,3.47
2018-07-14T07:40:31.175Z,3.60
2018-07-14T07:42:59.304Z,3.43
2018-07-14T07:45:27.714Z,3.70
2018-07-14T07:47:56.109Z,3.60
2018-07-14T07:50:24.521Z,3.20
2018-07-14T07:52:52.953Z,3.20
2018-07-14T07:55:23.284Z,3.20
2018-07-14T07:57:52.170Z,3.37
2018-07-14T08:00:20.802Z,3.27
2018-07-14T08:02:50.524Z,3.27
2018-07-14T08:05:19.385Z,3.50
2018-07-14T08:07:48.081Z,3.93
2018-07-14T08:10:18.776Z,3.73
2018-07-14T08:12:48.146Z,2.90
2018-07-14T08:15:16.657Z,3.20
2018-07-14T08:17:45.210Z,2.90
2018-07-14T08:20:14.168Z,3.07
2018-07-14T08:22:42.726Z,3.00
2018-07-14T08:25:11.281Z,3.30
2018-07-14T08:27:39.429Z,3.50
2018-07-14T08:30:07.884Z,2.70
2018-07-14T08:32:36.316Z,2.87
2018-07-14T08:35:05.159Z,2.90
2018-07-14T08:37:33.644Z,3.60
2018-07-14T08:40:02.191Z,2.57
2018-07-14T08:42:30.653Z,2.90
2018-07-14T08:44:58.765Z,3.20
2018-07-14T08:47:27.169Z,2.90
2018-07-14T08:49:55.707Z,2.73
2018-07-14T08:52:25.907Z,3.13
2018-07-14T08:54:54.497Z,2.90
2018-07-14T08:57:23.250Z,3.13
2018-07-14T08:59:51.667Z,2.80
2018-07-14T09:02:20.759Z,2.60
2018-07-14T09:04:49.150Z,2.80
2018-07-14T09:07:17.553Z,2.80
2018-07-14T09:09:45.962Z,2.20
2018-07-14T09:12:14.422Z,2.53
2018-07-14T09:14:42.822Z,3.07
2018-07-14T09:17:11.229Z,2.70
2018-07-14T09:19:39.638Z,3.27
2018-07-14T09:22:08.036Z,3.30
2018-07-14T09:24:36.447Z,3.20
2018-07-14T09:27:04.862Z,3.37
2018-07-14T09:29:33.272Z,2.80
2018-07-14T09:32:01.670Z,2.67
2018-07-14T09:34:30.091Z,3.07
2018-07-14T09:36:58.502Z,3.07
2018-07-14T09:39:26.922Z,2.90
2018-07-14T09:41:55.353Z,2.97
2018-07-14T09:44:23.805Z,2.40
2018-07-14T09:46:52.244Z,2.47
2018-07-14T09:49:20.674Z,2.47
2018-07-14T09:51:49.186Z,2.47
2018-07-14T09:54:17.733Z,2.60
2018-07-14T09:56:46.161Z,3.37
2018-07-14T09:59:14.605Z,3.43
2018-07-14T10:01:43.026Z,3.47
2018-07-14T10:04:11.457Z,3.20
2018-07-14T10:06:39.850Z,4.13
2018-07-14T10:09:08.278Z,3.93
2018-07-14T10:11:36.868Z,3.80
2018-07-14T10:14:05.368Z,4.20
2018-07-14T10:16:33.895Z,3.57
2018-07-14T10:19:02.316Z,3.33
2018-07-14T10:21:30.952Z,3.60
2018-07-14T10:23:59.373Z,3.87
2018-07-14T10:26:27.822Z,3.77
2018-07-14T10:28:56.257Z,2.80
2018-07-14T10:31:24.658Z,3.13
2018-07-14T10:33:53.070Z,3.60
2018-07-14T10:36:21.477Z,2.90
2018-07-14T10:38:49.935Z,3.40
2018-07-14T10:41:18.580Z,3.40
2018-07-14T10:43:47.005Z,3.90
2018-07-14T10:46:15.430Z,4.10
2018-07-14T10:48:43.863Z,3.40
2018-07-14T10:51:12.266Z,3.63
2018-07-14T10:53:40.667Z,4.57
2018-07-14T10:56:09.118Z,3.87
2018-07-14T10:58:37.622Z,3.70
2018-07-14T11:01:06.386Z,4.40
2018-07-14T11:03:34.869Z,4.07
2018-07-14T11:06:03.297Z,3.97
2018-07-14T11:08:32.546Z,3.90
2018-07-14T11:11:00.962Z,4.23
2018-07-14T11:13:29.409Z,3.97
2018-07-14T11:15:57.819Z,3.70
2018-07-14T11:18:26.241Z,4.30
2018-07-14T11:20:54.701Z,3.33
2018-07-14T11:23:23.124Z,3.93
2018-07-14T11:25:51.551Z,3.67
2018-07-14T11:28:19.970Z,3.47
2018-07-14T11:30:48.662Z,3.70
2018-07-14T11:33:17.073Z,3.13
2018-07-14T11:35:45.658Z,3.37
2018-07-14T11:38:14.097Z,3.33
2018-07-14T11:40:42.543Z,2.90
2018-07-14T11:43:10.986Z,3.50
2018-07-14T11:45:39.435Z,3.20
2018-07-14T11:48:07.849Z,3.10
2018-07-14T11:50:36.285Z,3.20
2018-07-14T11:53:05.188Z,3.30
2018-07-14T11:55:34.290Z,2.80
2018-07-14T11:58:03.006Z,3.90
2018-07-14T12:00:31.488Z,3.23
2018-07-14T12:02:59.900Z,3.40
2018-07-14T12:05:28.365Z,3.33
2018-07-14T12:07:56.829Z,3.40
2018-07-14T12:10:25.218Z,3.60
2018-07-14T12:12:53.642Z,3.87
2018-07-14T12:15:22.053Z,3.40
2018-07-14T12:17:50.473Z,3.37
2018-07-14T12:20:18.678Z,3.90
2018-07-14T12:22:47.106Z,3.23
2018-07-14T12:25:15.544Z,3.63
2018-07-14T12:27:43.961Z,3.30
2018-07-14T12:30:12.421Z,4.17
2018-07-14T12:32:41.278Z,3.97
2018-07-14T12:35:09.678Z,3.90
2018-07-14T12:37:38.091Z,3.63
2018-07-14T12:40:06.547Z,3.90
2018-07-14T12:42:35.077Z,3.43
2018-07-14T12:45:03.859Z,3.67
2018-07-14T12:47:32.325Z,4.00
2018-07-14T12:50:00.747Z,4.30
2018-07-14T12:52:29.169Z,3.90
2018-07-14T12:54:57.629Z,3.57
2018-07-14T12:57:26.073Z,3.67
2018-07-14T12:59:54.570Z,4.07
2018-07-14T13:02:22.979Z,4.50
2018-07-14T13:04:51.413Z,3.77
2018-07-14T13:07:20.811Z,4.27
2018-07-14T13:09:50.416Z,4.43
2018-07-14T13:12:18.926Z,4.37
2018-07-14T13:14:47.365Z,4.17
2018-07-14T13:17:15.813Z,4.27
2018-07-14T13:19:44.214Z,4.03
2018-07-14T13:22:12.684Z,3.93
2018-07-14T13:24:42.135Z,3.80
2018-07-14T13:27:10.588Z,4.53
2018-07-14T13:29:39.000Z,4.17
2018-07-14T13:32:07.417Z,5.07
2018-07-14T13:34:35.837Z,4.53
2018-07-14T13:37:04.267Z,5.00
2018-07-14T13:39:32.671Z,5.43
2018-07-14T13:42:01.113Z,5.23
2018-07-14T13:44:29.575Z,5.47
2018-07-14T13:46:58.026Z,5.90
2018-07-14T13:49:27.267Z,5.47
2018-07-14T13:51:56.817Z,5.77
2018-07-14T13:54:25.285Z,5.40
2018-07-14T13:56:53.710Z,5.50
2018-07-14T13:59:22.136Z,5.50
2018-07-14T14:01:50.565Z,5.60
2018-07-14T14:04:18.994Z,5.73
2018-07-14T14:06:47.402Z,6.37
2018-07-14T14:09:15.837Z,6.27
2018-07-14T14:11:44.241Z,6.20
2018-07-14T14:14:12.670Z,6.67
2018-07-14T14:16:41.082Z,6.50
2018-07-14T14:19:09.510Z,6.37
2018-07-14T14:21:37.937Z,7.47
2018-07-14T14:24:06.410Z,6.90
2018-07-14T14:26:34.854Z,7.30
2018-07-14T14:29:13.139Z,6.60
2018-07-14T14:31:41.569Z,7.47
2018-07-14T14:34:09.981Z,6.83
2018-07-14T14:36:38.569Z,7.97
2018-07-14T14:39:07.951Z,7.90
2018-07-14T14:41:36.416Z,6.50
2018-07-14T14:44:11.061Z,6.43
2018-07-14T14:46:39.502Z,6.90
2018-07-14T14:49:08.089Z,6.60
2018-07-14T14:51:36.517Z,6.40
2018-07-14T14:54:05.075Z,7.60
2018-07-14T14:56:33.501Z,6.00
2018-07-14T14:59:01.930Z,6.33
2018-07-14T15:01:30.966Z,6.67
2018-07-14T15:04:00.066Z,6.13
2018-07-14T15:06:29.447Z,6.87
2018-07-14T15:08:57.963Z,6.73
2018-07-14T15:11:26.394Z,7.00
2018-07-14T15:13:54.837Z,6.77
2018-07-14T15:16:23.313Z,7.20
2018-07-14T15:18:55.884Z,7.30
2018-07-14T15:21:24.330Z,6.47
2018-07-14T15:23:52.771Z,6.40
2018-07-14T15:26:21.278Z,7.10
2018-07-14T15:28:49.714Z,8.40
2018-07-14T15:31:18.194Z,6.63
2018-07-14T15:33:46.633Z,6.77
2018-07-14T15:36:15.078Z,6.97
2018-07-14T15:38:43.602Z,7.97
2018-07-14T15:41:12.015Z,7.37
2018-07-14T15:43:40.459Z,7.10
2018-07-14T15:46:08.871Z,7.53
2018-07-14T15:48:43.963Z,7.50
2018-07-14T15:51:12.401Z,7.47
2018-07-14T15:53:40.837Z,7.03
2018-07-14T15:56:09.353Z,7.07
2018-07-14T15:58:37.774Z,6.57
2018-07-14T16:01:06.237Z,6.43
2018-07-14T16:03:34.658Z,6.77
2018-07-14T16:06:03.077Z,7.40
2018-07-14T16:08:31.514Z,6.97
2018-07-14T16:10:59.921Z,6.20
2018-07-14T16:13:28.383Z,7.93
2018-07-14T16:15:56.811Z,7.93
2018-07-14T16:18:24.905Z,7.07
2018-07-14T16:20:53.333Z,7.43
2018-07-14T16:23:21.761Z,8.30
2018-07-14T16:25:50.216Z,7.97
2018-07-14T16:28:18.710Z,7.90
2018-07-14T16:30:47.102Z,7.37
2018-07-14T16:33:15.590Z,8.87
2018-07-14T16:35:44.091Z,8.20
2018-07-14T16:38:12.530Z,10.60
2018-07-14T16:40:41.000Z,8.33
2018-07-14T16:43:09.458Z,7.90
2018-07-14T16:45:37.909Z,9.13
2018-07-14T16:48:06.561Z,9.13
2018-07-14T16:50:35.010Z,30.07
2018-07-14T16:53:03.454Z,10.80
2018-07-14T16:55:32.744Z,7.57
2018-07-14T16:58:01.216Z,16.17
2018-07-14T17:00:29.666Z,18.70
2018-07-14T17:02:58.075Z,13.50
2018-07-14T17:05:26.490Z,8.40
2018-07-14T17:07:54.917Z,10.17
2018-07-14T17:10:23.457Z,8.77
2018-07-14T17:12:52.022Z,8.43
2018-07-14T17:15:20.439Z,7.40
2018-07-14T17:17:48.855Z,7.87
2018-07-14T17:20:17.282Z,6.30
2018-07-14T17:22:45.703Z,7.33
2018-07-14T17:25:14.133Z,7.90
2018-07-14T17:27:42.556Z,7.10
2018-07-14T17:30:10.977Z,7.43
2018-07-14T17:32:39.398Z,7.13
2018-07-14T17:35:07.921Z,8.13
2018-07-14T17:37:36.511Z,6.73
2018-07-14T17:40:05.183Z,7.57
2018-07-14T17:42:33.630Z,8.23
2018-07-14T17:45:02.067Z,8.00
2018-07-14T17:47:30.534Z,7.27
2018-07-14T17:49:58.951Z,7.60
2018-07-14T17:52:27.721Z,7.63
2018-07-14T17:54:56.162Z,7.27
2018-07-14T17:57:24.587Z,8.30
2018-07-14T17:59:53.061Z,7.37
2018-07-14T18:02:21.461Z,6.67
2018-07-14T18:04:49.881Z,6.90
2018-07-14T18:07:18.289Z,7.73
2018-07-14T18:09:46.686Z,6.93
2018-07-14T18:12:15.107Z,7.00
2018-07-14T18:14:43.586Z,7.00
2018-07-14T18:17:11.946Z,5.97
2018-07-14T18:19:40.353Z,6.67
2018-07-14T18:22:08.987Z,6.30
2018-07-14T18:24:37.390Z,6.03
2018-07-14T18:27:05.929Z,5.63
2018-07-14T18:29:34.354Z,11.73
2018-07-14T18:32:06.983Z,8.97
2018-07-14T18:34:35.389Z,8.27
2018-07-14T18:37:03.814Z,7.03
2018-07-14T18:39:32.253Z,5.97
2018-07-14T18:42:00.729Z,6.10
2018-07-14T18:44:29.265Z,7.53
2018-07-14T18:46:58.809Z,5.30
2018-07-14T18:49:27.573Z,7.53
2018-07-14T18:51:56.493Z,6.57
2018-07-14T18:54:25.512Z,6.93
2018-07-14T18:56:54.510Z,7.17
2018-07-14T18:59:23.534Z,7.03
2018-07-14T19:01:52.353Z,7.80
2018-07-14T19:04:21.224Z,13.13
2018-07-14T19:06:50.115Z,7.17
2018-07-14T19:09:19.075Z,7.40
2018-07-14T19:11:48.085Z,11.53
2018-07-14T19:14:16.852Z,18.53
2018-07-14T19:16:45.797Z,10.40
2018-07-14T19:19:14.682Z,8.40
2018-07-14T19:21:43.630Z,7.90
2018-07-14T19:24:12.646Z,7.23
2018-07-14T19:26:41.363Z,8.00
2018-07-14T19:29:10.428Z,7.47
2018-07-14T19:31:39.588Z,7.60
2018-07-14T19:34:08.657Z,7.60
2018-07-14T19:36:37.788Z,7.10
2018-07-14T19:39:07.268Z,6.80
2018-07-14T19:41:36.274Z,8.23
2018-07-14T19:44:04.730Z,7.03
2018-07-14T19:46:33.151Z,6.83
2018-07-14T19:49:01.561Z,7.60
2018-07-14T19:51:30.651Z,6.60
2018-07-14T19:53:59.911Z,7.40
2018-07-14T19:56:28.946Z,10.23
2018-07-14T19:58:57.859Z,16.10
2018-07-14T20:01:26.808Z,9.27
2018-07-14T20:03:55.925Z,10.83
2018-07-14T20:06:24.700Z,10.53
2018-07-14T20:08:53.762Z,8.30
2018-07-14T20:11:22.185Z,10.60
2018-07-14T20:13:51.377Z,9.33
2018-07-14T20:16:20.273Z,7.73
2018-07-14T20:18:49.135Z,23.30
2018-07-14T20:21:18.610Z,10.37
2018-07-14T20:23:47.967Z,7.63
2018-07-14T20:26:17.368Z,6.90
2018-07-14T20:28:47.759Z,6.90
2018-07-14T20:31:17.371Z,7.70
2018-07-14T20:33:46.545Z,8.50
2018-07-14T20:36:15.948Z,7.80
2018-07-14T20:38:45.109Z,7.13
2018-07-14T20:41:14.958Z,8.03
2018-07-14T20:43:43.379Z,8.60
2018-07-14T20:46:13.349Z,15.13
2018-07-14T20:48:42.642Z,16.43
2018-07-14T20:51:11.702Z,14.63
2018-07-14T20:53:41.248Z,10.03
2018-07-14T20:59:00.587Z,10.00
2018-07-14T21:01:29.606Z,9.80
2018-07-14T21:03:58.603Z,10.03
2018-07-14T21:06:27.602Z,11.60
2018-07-14T21:08:56.324Z,10.30
2018-07-14T21:11:25.359Z,10.43
2018-07-14T21:13:54.399Z,10.07
2018-07-14T21:16:23.607Z,9.93
2018-07-14T21:18:52.405Z,9.33
2018-07-14T21:21:21.662Z,9.33
2018-07-14T21:23:51.538Z,14.83
2018-07-14T21:26:20.402Z,27.10
2018-07-14T21:28:49.520Z,19.27
2018-07-14T21:31:18.513Z,13.70
2018-07-14T21:33:47.677Z,22.20
2018-07-14T21:36:16.483Z,62.27
2018-07-14T21:38:45.306Z,22.20
2018-07-14T21:41:14.459Z,23.53
2018-07-14T21:43:42.921Z,21.67
2018-07-14T21:46:11.394Z,14.00
2018-07-14T21:48:39.829Z,11.77
2018-07-14T21:51:08.254Z,21.13
2018-07-14T21:53:36.709Z,41.10
2018-07-14T21:56:05.239Z,19.23
2018-07-14T21:58:33.690Z,23.27
2018-07-14T22:01:07.394Z,18.43
2018-07-14T22:03:36.306Z,19.60
2018-07-14T22:06:05.299Z,15.40
2018-07-14T22:08:33.743Z,14.43
2018-07-14T22:11:02.478Z,11.83
2018-07-14T22:13:30.967Z,12.33
2018-07-14T22:15:59.441Z,12.40
2018-07-14T22:18:27.863Z,11.50
2018-07-14T22:20:56.302Z,12.20
2018-07-14T22:23:24.766Z,12.37
2018-07-14T22:25:53.185Z,22.60
2018-07-14T22:28:21.672Z,29.97
2018-07-14T22:30:50.106Z,25.40
2018-07-14T22:33:18.559Z,22.47
2018-07-14T22:35:46.997Z,30.50
2018-07-14T22:38:15.474Z,29.37
2018-07-14T22:40:43.872Z,29.40
2018-07-14T22:43:12.294Z,20.10
2018-07-14T22:45:40.453Z,16.67
2018-07-14T22:48:08.894Z,15.67
2018-07-14T22:50:37.317Z,14.40
2018-07-14T22:53:05.964Z,35.23
2018-07-14T22:55:34.439Z,25.57
2018-07-14T22:58:02.849Z,21.07
2018-07-14T23:00:31.274Z,15.70
2018-07-14T23:02:59.740Z,15.57
2018-07-14T23:05:28.177Z,14.60
2018-07-14T23:07:56.591Z,19.40
2018-07-14T23:10:25.022Z,17.67
2018-07-14T23:12:53.456Z,16.10
2018-07-14T23:15:21.887Z,13.17
2018-07-14T23:17:50.310Z,13.60
2018-07-14T23:20:18.732Z,14.30
2018-07-14T23:22:47.212Z,14.17
2018-07-14T23:25:15.635Z,13.90
2018-07-14T23:27:44.052Z,13.43
2018-07-14T23:30:12.485Z,13.80
2018-07-14T23:32:40.925Z,13.30
2018-07-14T23:35:09.365Z,13.60
2018-07-14T23:37:37.782Z,13.40
2018-07-14T23:40:06.277Z,13.57
2018-07-14T23:42:34.724Z,13.17
2018-07-14T23:45:03.167Z,13.30
2018-07-14T23:47:31.583Z,13.80
2018-07-14T23:50:00.018Z,14.37
2018-07-14T23:52:28.450Z,12.37
2018-07-14T23:54:56.935Z,12.10
2018-07-14T23:57:25.362Z,12.77
2018-07-14T23:59:53.779Z,13.03
